Swans Island, Maine
Current Conditions -  °F | °C
As of 5:15 PM on Thursday 18 Dec 2014 (Local Time) from KBHB Reporting Station
Overcast Overcast  
Wind Chill: 25°   Ceiling: 1800
Heat Index: 30°   Visibility: 10mi
Dew Point: 30°   Wind: 5mph
Humidity: 100%   Direction: 310°NW
Pressure: 29.66"   Gusts: NA
Location:  44.14°N, 68.45°W
Report Text: KBHB 182215Z AUTO 31004KT 10SM OVC018 M01/M01 A2966 RMK AO1
Loading
Personal Weather Stations






























Interactive Weather Map New forecast layout! Learn more

10-Day Weather Forecast

Advertisements
Track Severe Weather on mobile